Terminal Aerodrome Forecast
Issued by NWS

Home | Current Version | Previous Version | Text Only | Print | Product List | Glossary On
Versions: 1 2 3 4 5 6 7 8 9 10 11 12 13 14 15 16 17 18 19 20 21 22 23 24 25
000
FTUS41 KBTV 180520
TAFPBG
TAF
KPBG 180520Z 1806/1906 04010KT P6SM BKN090
     FM181400 11008KT P6SM SCT120
     FM181600 19010KT P6SM VCSH BKN050
     FM182000 32014G22KT P6SM BKN050
     FM190400 31010KT P6SM BKN040=

USA.gov is the U.S. government's official web portal to all federal, state and local government web resources and services.